createdAt,value
2023-05-02T00:00:10.420Z,23.3918
2023-05-02T00:01:11.821Z,23.4007
2023-05-02T00:02:13.231Z,23.3955
2023-05-02T00:03:14.666Z,23.3912
2023-05-02T00:04:16.137Z,23.4015
2023-05-02T00:05:17.457Z,23.4031
2023-05-02T00:06:18.948Z,23.4111
2023-05-02T00:07:20.349Z,23.4263
2023-05-02T00:08:21.718Z,23.4370
2023-05-02T00:09:23.290Z,23.4214
2023-05-02T00:10:24.643Z,23.4403
2023-05-02T00:11:26.143Z,23.4438
2023-05-02T00:12:27.402Z,23.4354
2023-05-02T00:13:28.913Z,23.4428
2023-05-02T00:14:30.309Z,23.4393
2023-05-02T00:15:31.780Z,23.4261
2023-05-02T00:16:33.302Z,23.4407
2023-05-02T00:17:34.690Z,23.4483
2023-05-02T00:18:36.025Z,23.4635
2023-05-02T00:19:37.447Z,23.4401
2023-05-02T00:20:38.966Z,23.4370
2023-05-02T00:21:40.326Z,23.4401
2023-05-02T00:22:41.672Z,23.4378
2023-05-02T00:23:43.118Z,23.4401
2023-05-02T00:24:44.518Z,23.4459
2023-05-02T00:25:46.007Z,23.4352
2023-05-02T00:26:47.463Z,23.4317
2023-05-02T00:27:48.797Z,23.4354
2023-05-02T00:28:50.145Z,23.4251
2023-05-02T00:29:51.671Z,23.4317
2023-05-02T00:30:53.090Z,23.4284
2023-05-02T00:31:54.569Z,23.4348
2023-05-02T00:32:55.973Z,23.4407
2023-05-02T00:33:57.390Z,23.4346
2023-05-02T00:34:58.766Z,23.4278
2023-05-02T00:36:00.210Z,23.4348
2023-05-02T00:37:01.600Z,23.4448
2023-05-02T00:38:03.102Z,23.4463
2023-05-02T00:39:04.409Z,23.4368
2023-05-02T00:40:05.889Z,23.4282
2023-05-02T00:41:07.237Z,23.4391
2023-05-02T00:42:08.694Z,23.4311
2023-05-02T00:43:10.098Z,23.4317
2023-05-02T00:44:11.537Z,23.4335
2023-05-02T00:45:12.920Z,23.4097
2023-05-02T00:46:14.374Z,23.4167
2023-05-02T00:47:15.793Z,23.4124
2023-05-02T00:48:17.205Z,23.4173
2023-05-02T00:49:18.541Z,23.4120
2023-05-02T00:50:20.036Z,23.4107
2023-05-02T00:51:21.418Z,23.4074
2023-05-02T00:52:22.931Z,23.4023
2023-05-02T00:53:24.264Z,23.3898
2023-05-02T00:54:25.726Z,23.3906
2023-05-02T00:55:27.103Z,23.3875
2023-05-02T00:56:28.545Z,23.3879
2023-05-02T00:57:30.006Z,23.3980
2023-05-02T00:58:31.418Z,23.3883
2023-05-02T00:59:32.798Z,23.3978
2023-05-02T01:00:34.246Z,23.3924
2023-05-02T01:01:35.576Z,23.3881
2023-05-02T01:02:37.279Z,23.3846
2023-05-02T01:03:38.590Z,23.3906
2023-05-02T01:04:39.980Z,23.3863
2023-05-02T01:05:41.329Z,23.3961
2023-05-02T01:06:42.898Z,23.3842
2023-05-02T01:07:44.179Z,23.3729
2023-05-02T01:08:45.600Z,23.3664
2023-05-02T01:09:46.991Z,23.3713
2023-05-02T01:10:48.416Z,23.3713
2023-05-02T01:11:49.820Z,23.3742
2023-05-02T01:12:51.307Z,23.3666
2023-05-02T01:13:52.662Z,23.3610
2023-05-02T01:14:54.134Z,23.3577
2023-05-02T01:15:55.506Z,23.3620
2023-05-02T01:16:56.996Z,23.3542
2023-05-02T01:17:58.499Z,23.3434
2023-05-02T01:18:59.818Z,23.3481
2023-05-02T01:20:01.331Z,23.3411
2023-05-02T01:21:02.657Z,23.3501
2023-05-02T01:22:04.066Z,23.3499
2023-05-02T01:23:05.456Z,23.3559
2023-05-02T01:24:06.863Z,23.3684
2023-05-02T01:25:08.178Z,23.3534
2023-05-02T01:26:09.715Z,23.3321
2023-05-02T01:27:11.105Z,23.3308
2023-05-02T01:28:12.595Z,23.3401
2023-05-02T01:29:13.859Z,23.3355
2023-05-02T01:30:15.400Z,23.3286
2023-05-02T01:31:16.826Z,23.3310
2023-05-02T01:32:18.250Z,23.3167
2023-05-02T01:33:19.684Z,23.3222
2023-05-02T01:34:21.091Z,23.3240
2023-05-02T01:35:22.402Z,23.3080
2023-05-02T01:36:23.943Z,23.3012
2023-05-02T01:37:25.328Z,23.2992
2023-05-02T01:38:26.842Z,23.2916
2023-05-02T01:39:28.122Z,23.2992
2023-05-02T01:40:29.585Z,23.2902
2023-05-02T01:41:30.974Z,23.2984
2023-05-02T01:42:32.423Z,23.2871
2023-05-02T01:43:33.834Z,23.2770
2023-05-02T01:44:35.260Z,23.2809
2023-05-02T01:45:36.621Z,23.2873
2023-05-02T01:46:38.176Z,23.2877
2023-05-02T01:47:39.509Z,23.2750
2023-05-02T01:48:40.975Z,23.2686
2023-05-02T01:49:42.342Z,23.2739
2023-05-02T01:50:43.800Z,23.2719
2023-05-02T01:51:45.117Z,23.2747
2023-05-02T01:52:46.641Z,23.2682
2023-05-02T01:53:48.094Z,23.2676
2023-05-02T01:54:49.469Z,23.2674
2023-05-02T01:55:50.844Z,23.2571
2023-05-02T01:56:52.310Z,23.2446
2023-05-02T01:57:53.693Z,23.2466
2023-05-02T01:58:55.190Z,23.2431
2023-05-02T01:59:56.580Z,23.2491
2023-05-02T02:00:58.022Z,23.2425
2023-05-02T02:01:59.362Z,23.2487
2023-05-02T02:03:00.808Z,23.2530
2023-05-02T02:04:02.339Z,23.2630
2023-05-02T02:05:03.699Z,23.2645
2023-05-02T02:06:05.127Z,23.2778
2023-05-02T02:07:06.650Z,23.2680
2023-05-02T02:08:07.948Z,23.2548
2023-05-02T02:09:09.462Z,23.2678
2023-05-02T02:10:10.788Z,23.2838
2023-05-02T02:11:12.235Z,23.2961
2023-05-02T02:12:13.652Z,23.3043
2023-05-02T02:13:15.147Z,23.3125
2023-05-02T02:14:16.499Z,23.3148
2023-05-02T02:15:17.968Z,23.3269
2023-05-02T02:16:19.400Z,23.3183
2023-05-02T02:17:20.762Z,23.3275
2023-05-02T02:18:22.159Z,23.3325
2023-05-02T02:19:23.664Z,23.3450
2023-05-02T02:20:25.068Z,23.3415
2023-05-02T02:21:26.434Z,23.3403
2023-05-02T02:22:27.852Z,23.3436
2023-05-02T02:23:29.341Z,23.3729
2023-05-02T02:24:30.738Z,23.3629
2023-05-02T02:25:32.173Z,23.3549
2023-05-02T02:26:33.530Z,23.3596
2023-05-02T02:27:34.986Z,23.3588
2023-05-02T02:28:36.431Z,23.3596
2023-05-02T02:29:37.875Z,23.3623
2023-05-02T02:30:39.379Z,23.3470
2023-05-02T02:31:40.657Z,23.3507
2023-05-02T02:32:42.146Z,23.3549
2023-05-02T02:33:43.496Z,23.3569
2023-05-02T02:34:45.056Z,23.3588
2023-05-02T02:35:46.389Z,23.3750
2023-05-02T02:36:47.804Z,23.3750
2023-05-02T02:37:49.185Z,23.3686
2023-05-02T02:38:50.652Z,23.3678
2023-05-02T02:39:52.107Z,23.3692
2023-05-02T02:40:53.514Z,23.3666
2023-05-02T02:41:54.902Z,23.3645
2023-05-02T02:42:56.338Z,23.3522
2023-05-02T02:43:57.805Z,23.3659
2023-05-02T02:44:59.174Z,23.3600
2023-05-02T02:46:00.729Z,23.3470
2023-05-02T02:47:02.000Z,23.3477
2023-05-02T02:48:03.492Z,23.3505
2023-05-02T02:49:04.872Z,23.3538
2023-05-02T02:50:06.365Z,23.3602
2023-05-02T02:51:07.772Z,23.3664
2023-05-02T02:52:09.135Z,23.3610
2023-05-02T02:53:10.511Z,23.3528
2023-05-02T02:54:25.411Z,23.3639
2023-05-02T02:55:13.423Z,23.3498
2023-05-02T02:56:14.899Z,23.3450
2023-05-02T02:57:16.224Z,23.3368
2023-05-02T02:58:17.626Z,23.3316
2023-05-02T02:59:19.067Z,23.3279
2023-05-02T03:00:20.604Z,23.3228
2023-05-02T03:01:21.975Z,23.3247
2023-05-02T03:02:23.386Z,23.3099
2023-05-02T03:03:24.872Z,23.3115
2023-05-02T03:04:26.186Z,23.3039
2023-05-02T03:05:27.679Z,23.3185
2023-05-02T03:06:29.187Z,23.3175
2023-05-02T03:07:30.493Z,23.3136
2023-05-02T03:08:31.905Z,23.3160
2023-05-02T03:09:33.316Z,23.3132
2023-05-02T03:10:34.868Z,23.3101
2023-05-02T03:11:36.192Z,23.3010
2023-05-02T03:12:37.653Z,23.2957
2023-05-02T03:13:39.003Z,23.3056
2023-05-02T03:14:40.508Z,23.3051
2023-05-02T03:15:41.919Z,23.2922
2023-05-02T03:16:43.420Z,23.2908
2023-05-02T03:17:44.821Z,23.2990
2023-05-02T03:18:46.229Z,23.3037
2023-05-02T03:19:47.584Z,23.2885
2023-05-02T03:20:48.959Z,23.2957
2023-05-02T03:21:50.504Z,23.2938
2023-05-02T03:22:51.896Z,23.2906
2023-05-02T03:23:53.264Z,23.2865
2023-05-02T03:24:54.687Z,23.2879
2023-05-02T03:25:56.072Z,23.2865
2023-05-02T03:26:57.568Z,23.2965
2023-05-02T03:27:58.953Z,23.2832
2023-05-02T03:29:00.364Z,23.2807
2023-05-02T03:30:02.084Z,23.2774
2023-05-02T03:31:03.260Z,23.2764
2023-05-02T03:32:04.750Z,23.2854
2023-05-02T03:33:06.100Z,23.2694
2023-05-02T03:34:07.513Z,23.2776
2023-05-02T03:35:08.913Z,23.2735
2023-05-02T03:36:10.338Z,23.2721
2023-05-02T03:37:11.759Z,23.2694
2023-05-02T03:38:13.287Z,23.2789
2023-05-02T03:39:14.594Z,23.2819
2023-05-02T03:40:16.052Z,23.2725
2023-05-02T03:41:17.346Z,23.2899
2023-05-02T03:42:18.910Z,23.2926
2023-05-02T03:43:20.332Z,23.2807
2023-05-02T03:44:21.781Z,23.2733
2023-05-02T03:45:23.152Z,23.2723
2023-05-02T03:46:24.617Z,23.2721
2023-05-02T03:47:26.032Z,23.2739
2023-05-02T03:48:27.496Z,23.2713
2023-05-02T03:49:28.805Z,23.2647
2023-05-02T03:50:30.294Z,23.2635
2023-05-02T03:51:31.604Z,23.2678
2023-05-02T03:52:33.125Z,23.2752
2023-05-02T03:53:34.562Z,23.2772
2023-05-02T03:54:36.040Z,23.2731
2023-05-02T03:55:37.405Z,23.2558
2023-05-02T03:56:40.202Z,23.2528
2023-05-02T03:57:40.259Z,23.2760
2023-05-02T03:58:41.721Z,23.2661
2023-05-02T03:59:43.160Z,23.2573
2023-05-02T04:00:44.552Z,23.2565
2023-05-02T04:01:45.969Z,23.2591
2023-05-02T04:02:47.495Z,23.2614
2023-05-02T04:03:48.900Z,23.2532
2023-05-02T04:04:50.287Z,23.2581
2023-05-02T04:05:51.676Z,23.2538
2023-05-02T04:06:53.185Z,23.2606
2023-05-02T04:07:54.469Z,23.2608
2023-05-02T04:08:56.001Z,23.2380
2023-05-02T04:09:57.439Z,23.2515
2023-05-02T04:10:58.748Z,23.2630
2023-05-02T04:12:00.256Z,23.2468
2023-05-02T04:13:01.716Z,23.2427
2023-05-02T04:14:03.164Z,23.2423
2023-05-02T04:15:04.615Z,23.2468
2023-05-02T04:16:05.982Z,23.2501
2023-05-02T04:17:07.543Z,23.2413
2023-05-02T04:18:08.891Z,23.2324
2023-05-02T04:19:10.829Z,23.2283
2023-05-02T04:20:11.696Z,23.2421
2023-05-02T04:21:13.073Z,23.2294
2023-05-02T04:22:14.478Z,23.2316
2023-05-02T04:23:15.922Z,23.2269
2023-05-02T04:24:17.389Z,23.2367
2023-05-02T04:25:18.867Z,23.2372
2023-05-02T04:26:20.108Z,23.2485
2023-05-02T04:27:21.622Z,23.2507
2023-05-02T04:28:23.113Z,23.2411
2023-05-02T04:29:24.506Z,23.2363
2023-05-02T04:30:25.932Z,23.2544
2023-05-02T04:31:27.406Z,23.2454
2023-05-02T04:32:28.802Z,23.2431
2023-05-02T04:33:30.120Z,23.2895
2023-05-02T04:34:31.591Z,23.2978
2023-05-02T04:35:32.987Z,23.3047
2023-05-02T04:36:34.390Z,23.3093
2023-05-02T04:37:35.783Z,23.3136
2023-05-02T04:38:37.224Z,23.3084
2023-05-02T04:39:38.613Z,23.3208
2023-05-02T04:40:40.120Z,23.3247
2023-05-02T04:41:41.486Z,23.3292
2023-05-02T04:42:42.925Z,23.3384
2023-05-02T04:43:44.358Z,23.3464
2023-05-02T04:44:45.814Z,23.3390
2023-05-02T04:45:47.112Z,23.3284
2023-05-02T04:46:48.613Z,23.3368
2023-05-02T04:47:50.028Z,23.3440
2023-05-02T04:48:51.472Z,23.3479
2023-05-02T04:49:52.875Z,23.3440
2023-05-02T04:50:54.403Z,23.3534
2023-05-02T04:51:55.733Z,23.3485
2023-05-02T04:52:57.121Z,23.3405
2023-05-02T04:53:58.523Z,23.3516
2023-05-02T04:55:00.001Z,23.3544
2023-05-02T04:56:01.351Z,23.3524
2023-05-02T04:57:02.792Z,23.3586
2023-05-02T04:58:04.173Z,23.3473
2023-05-02T04:59:05.617Z,23.3709
2023-05-02T05:00:07.042Z,23.3536
2023-05-02T05:01:08.557Z,23.3547
2023-05-02T05:02:09.991Z,23.3485
2023-05-02T05:03:11.383Z,23.3466
2023-05-02T05:04:12.810Z,23.3008
2023-05-02T05:05:14.215Z,23.2228
2023-05-02T05:06:15.676Z,23.0860
2023-05-02T05:07:17.003Z,23.0237
2023-05-02T05:08:18.366Z,23.0334
2023-05-02T05:09:19.881Z,22.9568
2023-05-02T05:10:21.203Z,22.8411
2023-05-02T05:11:23.375Z,22.8596
2023-05-02T05:12:24.095Z,22.9229
2023-05-02T05:13:25.479Z,22.8820
2023-05-02T05:14:26.902Z,22.9321
2023-05-02T05:15:28.322Z,22.9646
2023-05-02T05:16:29.841Z,22.9851
2023-05-02T05:17:31.240Z,22.9765
2023-05-02T05:18:32.589Z,22.9907
2023-05-02T05:19:34.010Z,23.0159
2023-05-02T05:20:35.480Z,23.0328
2023-05-02T05:21:36.892Z,23.0322
2023-05-02T05:22:38.284Z,23.0301
2023-05-02T05:23:39.630Z,23.0320
2023-05-02T05:24:41.080Z,23.0511
2023-05-02T05:25:44.249Z,23.0761
2023-05-02T05:26:43.949Z,23.0745
2023-05-02T05:27:45.355Z,23.0940
2023-05-02T05:28:46.759Z,23.1164
2023-05-02T05:29:48.072Z,23.1499
2023-05-02T05:30:49.621Z,23.1694
2023-05-02T05:31:51.074Z,23.1669
2023-05-02T05:32:52.437Z,23.1731
2023-05-02T05:33:53.883Z,23.1868
2023-05-02T05:34:55.281Z,23.1794
2023-05-02T05:35:56.712Z,23.1844
2023-05-02T05:36:58.104Z,23.2008
2023-05-02T05:37:59.564Z,23.1992
2023-05-02T05:39:00.921Z,23.2178
2023-05-02T05:40:02.899Z,23.2176
2023-05-02T05:41:03.759Z,23.2361
2023-05-02T05:42:05.264Z,23.2355
2023-05-02T05:43:06.688Z,23.2458
2023-05-02T05:44:08.077Z,23.2517
2023-05-02T05:45:09.445Z,23.2643
2023-05-02T05:46:10.881Z,23.2577
2023-05-02T05:47:12.490Z,23.2667
2023-05-02T05:48:13.846Z,23.2867
2023-05-02T05:49:15.144Z,23.2959
2023-05-02T05:50:16.623Z,23.3072
2023-05-02T05:51:17.989Z,23.3099
2023-05-02T05:52:19.525Z,23.3074
2023-05-02T05:53:20.896Z,23.3152
2023-05-02T05:54:22.298Z,23.3043
2023-05-02T05:55:23.656Z,23.3015
2023-05-02T05:56:25.100Z,23.3039
2023-05-02T05:57:26.529Z,23.2969
2023-05-02T05:58:27.979Z,23.3080
2023-05-02T05:59:29.328Z,23.3136
2023-05-02T06:00:30.777Z,23.3245
2023-05-02T06:01:32.156Z,23.3142
2023-05-02T06:02:33.734Z,23.3123
2023-05-02T06:03:35.222Z,23.3185
2023-05-02T06:04:36.527Z,23.3117
2023-05-02T06:05:37.851Z,23.2926
2023-05-02T06:06:39.361Z,23.2930
2023-05-02T06:07:40.725Z,23.2971
2023-05-02T06:08:42.160Z,23.2863
2023-05-02T06:09:43.597Z,23.2811
2023-05-02T06:10:44.986Z,23.2965
2023-05-02T06:11:46.303Z,23.2959
2023-05-02T06:12:49.255Z,23.3004
2023-05-02T06:13:49.272Z,23.2930
2023-05-02T06:14:50.705Z,23.3023
2023-05-02T06:15:52.061Z,23.2978
2023-05-02T06:16:53.468Z,23.3023
2023-05-02T06:17:55.009Z,23.3056
2023-05-02T06:18:56.364Z,23.2941
2023-05-02T06:19:58.081Z,23.2865
2023-05-02T06:20:59.118Z,23.2908
2023-05-02T06:22:00.602Z,23.2928
2023-05-02T06:23:02.059Z,23.2856
2023-05-02T06:24:03.504Z,23.3066
2023-05-02T06:25:04.900Z,23.2941
2023-05-02T06:26:06.307Z,23.2873
2023-05-02T06:27:07.723Z,23.2799
2023-05-02T06:28:09.135Z,23.2766
2023-05-02T06:29:10.601Z,23.2830
2023-05-02T06:30:11.921Z,23.2766
2023-05-02T06:31:13.477Z,23.2702
2023-05-02T06:32:14.769Z,23.2791
2023-05-02T06:33:16.293Z,23.2910
2023-05-02T06:34:17.689Z,23.2618
2023-05-02T06:35:19.094Z,23.2575
2023-05-02T06:36:20.472Z,23.2558
2023-05-02T06:37:21.864Z,23.2476
2023-05-02T06:38:23.368Z,23.2657
2023-05-02T06:39:24.766Z,23.2698
2023-05-02T06:40:26.205Z,23.2897
2023-05-02T06:41:27.612Z,23.2694
2023-05-02T06:42:29.045Z,23.2480
2023-05-02T06:43:30.480Z,23.2285
2023-05-02T06:44:31.910Z,23.2721
2023-05-02T06:45:33.265Z,23.2867
2023-05-02T06:46:34.769Z,23.2889
2023-05-02T06:47:36.163Z,23.2897
2023-05-02T06:48:37.593Z,23.3115
2023-05-02T06:49:39.025Z,23.3212
2023-05-02T06:50:40.448Z,23.3054
2023-05-02T06:51:41.817Z,23.3043
2023-05-02T06:52:43.252Z,23.3025
2023-05-02T06:53:44.686Z,23.2832
2023-05-02T06:54:46.212Z,23.2565
2023-05-02T06:55:47.509Z,23.2694
2023-05-02T06:56:48.874Z,23.2908
2023-05-02T06:57:50.372Z,23.2838
2023-05-02T06:58:51.848Z,23.2378
2023-05-02T06:59:53.555Z,23.2365
2023-05-02T07:00:54.742Z,23.2729
2023-05-02T07:01:56.038Z,23.2961
2023-05-02T07:02:57.574Z,23.3220
2023-05-02T07:03:58.927Z,23.3431
2023-05-02T07:05:00.334Z,23.3567
2023-05-02T07:06:01.715Z,23.3848
2023-05-02T07:07:03.144Z,23.3452
2023-05-02T07:08:04.530Z,23.3608
2023-05-02T07:09:06.026Z,23.3555
2023-05-02T07:10:07.398Z,23.3499
2023-05-02T07:11:08.872Z,23.3596
2023-05-02T07:12:10.213Z,23.3438
2023-05-02T07:13:11.688Z,23.3222
2023-05-02T07:14:13.026Z,23.3251
2023-05-02T07:15:14.550Z,23.3189
2023-05-02T07:16:15.864Z,23.3208
2023-05-02T07:17:17.359Z,23.3627
2023-05-02T07:18:18.830Z,23.3758
2023-05-02T07:19:20.250Z,23.3475
2023-05-02T07:20:21.698Z,23.2653
2023-05-02T07:21:23.052Z,23.2417
2023-05-02T07:22:24.470Z,23.3010
2023-05-02T07:23:25.845Z,23.3191
2023-05-02T07:24:27.307Z,23.3699
2023-05-02T07:25:28.735Z,23.3764
2023-05-02T07:26:30.173Z,23.3857
2023-05-02T07:27:31.560Z,23.3875
2023-05-02T07:28:33.001Z,23.3846
2023-05-02T07:29:34.412Z,23.4015
2023-05-02T07:30:35.857Z,23.3717
2023-05-02T07:31:37.237Z,23.3805
2023-05-02T07:32:38.681Z,23.3881
2023-05-02T07:33:40.047Z,23.3678
2023-05-02T07:34:41.406Z,23.3764
2023-05-02T07:35:42.980Z,23.3842
2023-05-02T07:36:44.364Z,23.3951
2023-05-02T07:37:45.713Z,23.4013
2023-05-02T07:38:47.199Z,23.3927
2023-05-02T07:39:48.553Z,23.3836
2023-05-02T07:40:50.053Z,23.3931
2023-05-02T07:41:51.456Z,23.4039
2023-05-02T07:42:52.849Z,23.3861
2023-05-02T07:43:54.234Z,23.3779
2023-05-02T07:44:55.689Z,23.3719
2023-05-02T07:45:57.172Z,23.3719
2023-05-02T07:46:58.584Z,23.3709
2023-05-02T07:47:59.957Z,23.3625
2023-05-02T07:49:01.379Z,23.3686
2023-05-02T07:50:03.006Z,23.3534
2023-05-02T07:51:04.289Z,23.3721
2023-05-02T07:52:05.693Z,23.3748
2023-05-02T07:53:07.077Z,23.3618
2023-05-02T07:54:08.480Z,23.3674
2023-05-02T07:55:09.944Z,23.3715
2023-05-02T07:56:11.388Z,23.3620
2023-05-02T07:57:12.807Z,23.3581
2023-05-02T07:58:14.193Z,23.3569
2023-05-02T07:59:15.610Z,23.3717
2023-05-02T08:00:17.017Z,23.3787
2023-05-02T08:01:18.543Z,23.3742
2023-05-02T08:02:20.034Z,23.3752
2023-05-02T08:03:21.451Z,23.3836
2023-05-02T08:04:22.896Z,23.3840
2023-05-02T08:05:24.165Z,23.3699
2023-05-02T08:06:25.689Z,23.3633
2023-05-02T08:07:27.046Z,23.3627
2023-05-02T08:08:28.373Z,23.3674
2023-05-02T08:09:29.845Z,23.3707
2023-05-02T08:10:31.257Z,23.3657
2023-05-02T08:11:32.677Z,23.3717
2023-05-02T08:12:34.180Z,23.3534
2023-05-02T08:13:35.640Z,23.3507
2023-05-02T08:14:36.912Z,23.3645
2023-05-02T08:15:38.585Z,23.3583
2023-05-02T08:16:40.040Z,23.3670
2023-05-02T08:17:41.355Z,23.3659
2023-05-02T08:18:42.674Z,23.3676
2023-05-02T08:19:44.065Z,23.3655
2023-05-02T08:20:45.514Z,23.3602
2023-05-02T08:21:46.960Z,23.3458
2023-05-02T08:22:48.397Z,23.3440
2023-05-02T08:23:49.799Z,23.3487
2023-05-02T08:24:51.175Z,23.3405
2023-05-02T08:25:52.616Z,23.3353
2023-05-02T08:26:54.074Z,23.3370
2023-05-02T08:27:55.493Z,23.3434
2023-05-02T08:28:56.917Z,23.2819
2023-05-02T08:30:00.658Z,23.3251
2023-05-02T08:30:59.697Z,23.3210
2023-05-02T08:32:01.280Z,23.3273
2023-05-02T08:33:02.618Z,23.3497
2023-05-02T08:34:04.009Z,23.3639
2023-05-02T08:35:05.424Z,23.3822
2023-05-02T08:36:06.852Z,23.3793
2023-05-02T08:37:08.299Z,23.3522
2023-05-02T08:38:09.732Z,23.3421
2023-05-02T08:39:11.093Z,23.3335
2023-05-02T08:40:12.550Z,23.3183
2023-05-02T08:41:13.958Z,23.3183
2023-05-02T08:42:15.359Z,23.3380
2023-05-02T08:43:16.797Z,23.3300
2023-05-02T08:44:18.207Z,23.3323
2023-05-02T08:45:19.555Z,23.3208
2023-05-02T08:46:21.011Z,23.3099
2023-05-02T08:47:22.617Z,23.3292
2023-05-02T08:48:23.953Z,23.3397
2023-05-02T08:49:25.323Z,23.3160
2023-05-02T08:50:26.772Z,23.3066
2023-05-02T08:51:28.088Z,23.3193
2023-05-02T08:52:29.506Z,23.2982
2023-05-02T08:53:31.027Z,23.3008
2023-05-02T08:54:32.422Z,23.3051
2023-05-02T08:55:33.748Z,23.3140
2023-05-02T08:56:35.205Z,23.3074
2023-05-02T08:57:36.668Z,23.3325
2023-05-02T08:58:38.154Z,23.3384
2023-05-02T08:59:39.546Z,23.3269
2023-05-02T09:00:40.991Z,23.3236
2023-05-02T09:01:42.371Z,23.3294
2023-05-02T09:02:43.865Z,23.3347
2023-05-02T09:03:45.205Z,23.3501
2023-05-02T09:04:46.769Z,23.3487
2023-05-02T09:05:47.999Z,23.3491
2023-05-02T09:06:49.499Z,23.3551
2023-05-02T09:07:50.832Z,23.3390
2023-05-02T09:08:52.276Z,23.3528
2023-05-02T09:09:53.729Z,23.3559
2023-05-02T09:10:55.213Z,23.3653
2023-05-02T09:11:56.475Z,23.3563
2023-05-02T09:12:57.981Z,23.3680
2023-05-02T09:13:59.388Z,23.3497
2023-05-02T09:15:01.033Z,23.3701
2023-05-02T09:16:02.208Z,23.3616
2023-05-02T09:17:03.844Z,23.3588
2023-05-02T09:18:05.151Z,23.3608
2023-05-02T09:19:06.497Z,23.3598
2023-05-02T09:20:07.913Z,23.3392
2023-05-02T09:21:09.379Z,23.3364
2023-05-02T09:22:10.791Z,23.3507
2023-05-02T09:23:12.249Z,23.3520
2023-05-02T09:24:13.677Z,23.3534
2023-05-02T09:25:15.098Z,23.3573
2023-05-02T09:26:16.464Z,23.3590
2023-05-02T09:27:17.900Z,23.3592
2023-05-02T09:28:19.270Z,23.3575
2023-05-02T09:29:20.714Z,23.3577
2023-05-02T09:30:22.235Z,23.3473
2023-05-02T09:32:24.987Z,23.3366
2023-05-02T09:33:26.467Z,23.3199
2023-05-02T09:34:27.825Z,23.3243
2023-05-02T09:35:29.326Z,23.3306
2023-05-02T09:36:30.727Z,23.3325
2023-05-02T09:37:32.182Z,23.3411
2023-05-02T09:38:33.529Z,23.3514
2023-05-02T09:39:34.973Z,23.3483
2023-05-02T09:40:36.399Z,23.3503
2023-05-02T09:41:37.858Z,23.3606
2023-05-02T09:42:39.230Z,23.3553
2023-05-02T09:43:40.683Z,23.3536
2023-05-02T09:44:42.061Z,23.3460
2023-05-02T09:45:43.592Z,23.3421
2023-05-02T09:46:45.034Z,23.3577
2023-05-02T09:47:46.361Z,23.3592
2023-05-02T09:48:47.776Z,23.3690
2023-05-02T09:49:49.241Z,23.3766
2023-05-02T09:50:50.691Z,23.3875
2023-05-02T09:51:52.153Z,23.3945
2023-05-02T09:52:53.499Z,23.4196
2023-05-02T09:53:54.984Z,23.4202
2023-05-02T09:54:56.363Z,23.4118
2023-05-02T09:55:57.840Z,23.4144
2023-05-02T09:56:59.225Z,23.4134
2023-05-02T09:58:00.594Z,23.4208
2023-05-02T09:59:02.050Z,23.4376
2023-05-02T10:00:03.756Z,23.4329
2023-05-02T10:01:05.002Z,23.4239
2023-05-02T10:02:06.323Z,23.4210
2023-05-02T10:03:07.823Z,23.4210
2023-05-02T10:04:09.658Z,23.4329
2023-05-02T10:05:10.615Z,23.4175
2023-05-02T10:06:12.158Z,23.4210
2023-05-02T10:07:13.568Z,23.4337
2023-05-02T10:08:14.902Z,23.4434
2023-05-02T10:09:19.783Z,23.4278
2023-05-02T10:10:17.707Z,23.4266
2023-05-02T10:11:19.242Z,23.4409
2023-05-02T10:12:20.570Z,23.4380
2023-05-02T10:13:21.988Z,23.4422
2023-05-02T10:14:23.402Z,23.4658
2023-05-02T10:15:24.820Z,23.4676
2023-05-02T10:16:26.282Z,23.4469
2023-05-02T10:17:27.730Z,23.4459
2023-05-02T10:18:29.097Z,23.4475
2023-05-02T10:19:30.492Z,23.4483
2023-05-02T10:20:31.970Z,23.4387
2023-05-02T10:21:33.429Z,23.4432
2023-05-02T10:22:34.835Z,23.4358
2023-05-02T10:23:36.142Z,23.4395
2023-05-02T10:24:37.645Z,23.4403
2023-05-02T10:25:39.050Z,23.4504
2023-05-02T10:26:40.474Z,23.4682
2023-05-02T10:27:41.876Z,23.4880
2023-05-02T10:28:43.407Z,23.4754
2023-05-02T10:29:44.701Z,23.4861
2023-05-02T10:30:46.134Z,23.4847
2023-05-02T10:31:47.603Z,23.4771
2023-05-02T10:32:49.053Z,23.4804
2023-05-02T10:33:50.424Z,23.4939
2023-05-02T10:34:51.831Z,23.4797
2023-05-02T10:35:53.240Z,23.4824
2023-05-02T10:36:54.675Z,23.4871
2023-05-02T10:37:56.105Z,23.4779
2023-05-02T10:38:57.589Z,23.4808
2023-05-02T10:39:58.984Z,23.4931
2023-05-02T10:41:00.337Z,23.4995
2023-05-02T10:42:01.759Z,23.4982
2023-05-02T10:43:03.187Z,23.5143
2023-05-02T10:44:04.676Z,23.5163
2023-05-02T10:45:06.025Z,23.4871
2023-05-02T10:46:07.478Z,23.4947
2023-05-02T10:47:08.834Z,23.5044
2023-05-02T10:48:10.402Z,23.5032
2023-05-02T10:49:11.713Z,23.5177
2023-05-02T10:50:13.167Z,23.5186
2023-05-02T10:51:14.554Z,23.5122
2023-05-02T10:52:15.888Z,23.5091
2023-05-02T10:53:17.395Z,23.5145
2023-05-02T10:54:18.858Z,23.5095
2023-05-02T10:55:20.214Z,23.5056
2023-05-02T10:56:21.679Z,23.4988
2023-05-02T10:57:23.029Z,23.5212
2023-05-02T10:58:24.559Z,23.5338
2023-05-02T10:59:25.924Z,23.5514
2023-05-02T11:00:27.398Z,23.5321
2023-05-02T11:01:28.858Z,23.5278
2023-05-02T11:02:30.227Z,23.5200
2023-05-02T11:03:31.620Z,23.5405
2023-05-02T11:04:33.056Z,23.5685
2023-05-02T11:05:34.427Z,23.5796
2023-05-02T11:06:35.908Z,23.5613
2023-05-02T11:07:37.232Z,23.5705
2023-05-02T11:08:38.617Z,23.5796
2023-05-02T11:09:40.128Z,23.5925
2023-05-02T11:10:41.575Z,23.5880
2023-05-02T11:11:43.299Z,23.5903
2023-05-02T11:12:44.309Z,23.6126
2023-05-02T11:13:45.778Z,23.6081
2023-05-02T11:14:47.314Z,23.6011
2023-05-02T11:15:48.678Z,23.6022
2023-05-02T11:16:50.085Z,23.6328
2023-05-02T11:17:51.448Z,23.6338
2023-05-02T11:18:52.875Z,23.6463
2023-05-02T11:19:54.318Z,23.6262
2023-05-02T11:20:55.765Z,23.6032
2023-05-02T11:21:57.119Z,23.5894
2023-05-02T11:22:58.604Z,23.5861
2023-05-02T11:23:59.933Z,23.6096
2023-05-02T11:25:01.748Z,23.6408
2023-05-02T11:26:02.859Z,23.6675
2023-05-02T11:27:04.245Z,23.6697
2023-05-02T11:28:05.681Z,23.6905
2023-05-02T11:29:07.090Z,23.7073
2023-05-02T11:30:08.491Z,23.7010
2023-05-02T11:31:09.974Z,23.6960
2023-05-02T11:32:11.348Z,23.7003
2023-05-02T11:33:12.808Z,23.7227
2023-05-02T11:34:14.141Z,23.7121
2023-05-02T11:35:15.612Z,23.7121
2023-05-02T11:36:17.152Z,23.7340
2023-05-02T11:37:18.449Z,23.7375
2023-05-02T11:38:19.878Z,23.7542
2023-05-02T11:39:21.302Z,23.7564
2023-05-02T11:40:22.722Z,23.7552
2023-05-02T11:41:24.195Z,23.7568
2023-05-02T11:42:25.554Z,23.7644
2023-05-02T11:43:28.165Z,23.7521
2023-05-02T11:44:28.360Z,23.7377
2023-05-02T11:45:29.884Z,23.7361
2023-05-02T11:46:31.340Z,23.7303
2023-05-02T11:47:32.762Z,23.7256
2023-05-02T11:48:34.161Z,23.7312
2023-05-02T11:49:35.527Z,23.7344
2023-05-02T11:50:37.728Z,23.7227
2023-05-02T11:51:38.426Z,23.7433
2023-05-02T11:52:39.746Z,23.7455
2023-05-02T11:53:41.250Z,23.7457
2023-05-02T11:54:42.613Z,23.7133
2023-05-02T11:55:44.022Z,23.7223
2023-05-02T11:56:45.510Z,23.7308
2023-05-02T11:57:46.977Z,23.7240
2023-05-02T11:58:48.288Z,23.7336
2023-05-02T11:59:49.758Z,23.7330
2023-05-02T12:00:51.147Z,23.7289
2023-05-02T12:01:52.625Z,23.7305
2023-05-02T12:02:54.064Z,23.7509
2023-05-02T12:03:55.531Z,23.7546
2023-05-02T12:04:56.811Z,23.7620
2023-05-02T12:05:58.285Z,23.7727
2023-05-02T12:06:59.708Z,23.7714
2023-05-02T12:08:01.180Z,23.7507
2023-05-02T12:09:02.493Z,23.7312
2023-05-02T12:10:03.974Z,23.7283
2023-05-02T12:11:05.344Z,23.7383
2023-05-02T12:12:06.852Z,23.7322
2023-05-02T12:13:10.103Z,23.7308
2023-05-02T12:14:09.633Z,23.7285
2023-05-02T12:15:11.134Z,23.7227
2023-05-02T12:16:12.618Z,23.7137
2023-05-02T12:17:13.931Z,23.7143
2023-05-02T12:18:15.395Z,23.7001
2023-05-02T12:19:16.823Z,23.6983
2023-05-02T12:20:18.295Z,23.7084
2023-05-02T12:21:19.636Z,23.6899
2023-05-02T12:22:21.121Z,23.6849
2023-05-02T12:23:22.505Z,23.6864